TimeMDT,TemperatureF,Dew PointF,Humidity,Sea Level PressureIn,VisibilityMPH,Wind Direction,Wind SpeedMPH,Gust SpeedMPH,PrecipitationIn,Events,Conditions,WindDirDegrees,DateUTC
12:11 AM,30.2,28.4,93,29.99,4.0,North,19.6,-,0.00,Snow,Light Snow,350,2013-10-04 06:11:00
12:22 AM,30.2,28.4,93,29.98,2.5,NNW,16.1,-,0.00,Snow,Light Snow,340,2013-10-04 06:22:00
12:36 AM,30.2,26.6,86,29.96,3.0,North,19.6,-,0.00,Snow,Light Snow,350,2013-10-04 06:36:00
12:51 AM,28.4,26.6,93,29.96,2.0,North,20.7,32.2,0.00,Snow,Light Snow,360,2013-10-04 06:51:00
12:53 AM,28.9,27.0,92,29.90,2.0,North,21.9,32.2,0.00,Snow,Light Snow,360,2013-10-04 06:53:00
1:01 AM,28.4,26.6,93,29.97,1.8,North,24.2,32.2,0.00,Snow,Light Snow,360,2013-10-04 07:01:00
1:38 AM,28.4,26.6,93,29.98,2.5,North,16.1,25.3,0.01,Snow,Light Snow,350,2013-10-04 07:38:00
1:53 AM,28.9,26.1,89,29.96,4.0,North,17.3,-,0.01,Snow,Light Snow,350,2013-10-04 07:53:00
2:07 AM,28.4,26.6,93,29.99,2.0,North,15.0,-,0.00,Snow,Light Snow,350,2013-10-04 08:07:00
2:15 AM,28.4,26.6,93,29.99,1.2,North,16.1,-,0.00,Snow,Light Snow,350,2013-10-04 08:15:00
2:33 AM,28.4,26.6,93,29.98,1.0,North,17.3,-,0.00,Snow,Light Snow,350,2013-10-04 08:33:00
2:53 AM,28.0,26.1,92,29.97,1.0,North,15.0,-,0.00,Snow,Light Snow,360,2013-10-04 08:53:00
3:42 AM,28.4,24.8,86,29.98,1.5,North,10.4,-,0.01,Snow,Light Snow,360,2013-10-04 09:42:00
3:53 AM,28.0,26.1,92,29.99,1.5,North,10.4,-,0.01,Snow,Light Snow,10,2013-10-04 09:53:00
4:21 AM,28.4,24.8,86,29.98,1.5,NNE,9.2,-,0.01,Snow,Light Snow,20,2013-10-04 10:21:00
4:53 AM,28.0,25.0,88,30.03,1.2,NNE,11.5,-,0.02,Snow,Light Snow,20,2013-10-04 10:53:00
5:53 AM,27.0,25.0,92,30.08,0.8,NNE,8.1,-,0.01,Snow,Light Snow,20,2013-10-04 11:53:00
6:05 AM,26.6,24.8,93,30.04,0.8,North,8.1,-,0.01,Snow,Light Snow,10,2013-10-04 12:05:00
6:16 AM,26.6,24.8,93,30.05,1.0,North,8.1,-,0.02,Snow,Light Snow,360,2013-10-04 12:16:00
6:26 AM,26.6,24.8,93,30.05,0.8,North,10.4,-,0.02,Snow,Light Snow,360,2013-10-04 12:26:00
6:36 AM,26.6,24.8,93,30.07,1.0,North,15.0,-,0.02,Snow,Light Snow,10,2013-10-04 12:36:00
6:45 AM,26.6,24.8,93,30.07,0.8,North,12.7,-,0.02,Snow,Light Snow,360,2013-10-04 12:45:00
6:53 AM,27.0,25.0,92,30.11,0.8,North,17.3,-,0.02,Snow,Light Snow,360,2013-10-04 12:53:00
7:07 AM,26.6,24.8,93,30.08,1.0,North,20.7,-,0.00,Snow,Light Snow,10,2013-10-04 13:07:00
7:23 AM,26.6,24.8,93,30.08,2.0,North,21.9,-,0.00,Snow,Light Snow,10,2013-10-04 13:23:00
7:30 AM,26.6,24.8,93,30.08,1.0,North,17.3,27.6,0.00,Snow,Light Snow,360,2013-10-04 13:30:00
7:39 AM,26.6,24.8,93,30.09,0.8,North,18.4,-,0.00,Snow,Light Snow,360,2013-10-04 13:39:00
7:53 AM,27.0,25.0,92,30.13,1.0,North,18.4,25.3,0.00,Snow,Light Snow,360,2013-10-04 13:53:00
8:06 AM,26.6,24.8,93,30.09,0.8,North,23.0,-,0.00,Snow,Light Snow,360,2013-10-04 14:06:00
8:14 AM,26.6,24.8,93,30.09,1.0,North,21.9,-,0.00,Snow,Light Snow,360,2013-10-04 14:14:00
8:35 AM,26.6,24.8,93,30.11,0.8,North,23.0,-,0.00,Snow,Light Snow,360,2013-10-04 14:35:00
8:53 AM,27.0,25.0,92,30.16,0.5,North,24.2,-,0.00,Fog-Snow,Light Snow,360,2013-10-04 14:53:00
9:25 AM,26.6,24.8,93,30.13,1.5,North,19.6,-,0.00,Snow,Light Snow,360,2013-10-04 15:25:00
9:30 AM,26.6,24.8,93,30.13,2.0,North,20.7,-,0.00,Snow,Light Snow,360,2013-10-04 15:30:00
9:44 AM,26.6,24.8,93,30.14,4.0,North,19.6,-,0.00,Snow,Light Snow,360,2013-10-04 15:44:00
9:53 AM,27.0,25.0,92,30.20,6.0,North,19.6,-,0.00,,Overcast,360,2013-10-04 15:53:00
10:17 AM,26.6,24.8,93,30.16,2.5,North,18.4,-,0.00,Snow,Light Snow,360,2013-10-04 16:17:00
10:35 AM,26.6,24.8,93,30.17,1.5,North,18.4,-,0.00,Snow,Light Snow,360,2013-10-04 16:35:00
10:53 AM,28.0,25.0,88,30.22,1.5,North,18.4,-,0.00,Snow,Light Snow,360,2013-10-04 16:53:00
11:10 AM,28.4,24.8,86,30.19,0.8,North,19.6,28.8,0.00,Snow,Light Snow,350,2013-10-04 17:10:00
11:27 AM,26.6,24.8,93,30.20,1.0,NNW,15.0,-,0.00,Snow,Light Snow,340,2013-10-04 17:27:00
11:53 AM,27.0,23.0,85,30.27,1.8,NNW,17.3,-,0.00,Snow,Light Snow,330,2013-10-04 17:53:00
12:00 PM,26.6,23.0,86,30.21,3.0,NNW,19.6,-,0.00,Snow,Light Snow,340,2013-10-04 18:00:00
12:19 PM,26.6,23.0,86,30.22,4.0,NNW,19.6,-,0.00,Snow,Light Snow,330,2013-10-04 18:19:00
12:53 PM,26.1,21.9,84,30.30,2.5,NNW,20.7,-,0.00,Snow,Light Snow,330,2013-10-04 18:53:00
1:10 PM,26.6,21.2,80,30.24,1.8,NNW,19.6,-,0.00,Snow,Light Snow,330,2013-10-04 19:10:00
1:53 PM,26.1,21.9,84,30.32,1.0,NNW,24.2,-,0.00,Snow,Light Snow,330,2013-10-04 19:53:00
2:18 PM,26.6,21.2,80,30.26,2.0,NNW,24.2,-,0.00,Snow,Light Snow,330,2013-10-04 20:18:00
2:53 PM,26.1,21.9,84,30.35,3.0,NNW,20.7,27.6,0.00,Snow,Light Snow,330,2013-10-04 20:53:00
3:53 PM,26.1,21.0,81,30.36,10.0,NNW,21.9,-,0.00,,Overcast,330,2013-10-04 21:53:00
4:53 PM,25.0,21.0,85,30.38,3.0,NNW,16.1,-,0.00,Snow,Light Snow,330,2013-10-04 22:53:00
5:05 PM,24.8,21.2,86,30.30,2.5,NW,13.8,-,0.00,Snow,Light Snow,320,2013-10-04 23:05:00
5:25 PM,24.8,19.4,80,30.30,5.0,NNW,15.0,-,0.00,Snow,Light Snow,330,2013-10-04 23:25:00
5:53 PM,24.1,19.9,84,30.40,5.0,NW,11.5,-,0.00,Snow,Light Snow,320,2013-10-04 23:53:00
6:32 PM,24.8,19.4,80,30.31,2.0,NW,10.4,-,0.00,Snow,Light Snow,320,2013-10-05 00:32:00
6:53 PM,24.1,19.9,84,30.41,3.0,NW,11.5,-,0.00,Snow,Light Snow,320,2013-10-05 00:53:00
7:53 PM,23.0,19.0,85,30.41,6.0,WNW,18.4,-,0.00,,Overcast,300,2013-10-05 01:53:00
8:53 PM,24.1,19.0,81,30.40,10.0,NW,17.3,-,0.00,,Overcast,310,2013-10-05 02:53:00
9:53 PM,24.1,19.0,81,30.41,10.0,NW,16.1,-,N/A,,Overcast,310,2013-10-05 03:53:00
10:53 PM,24.1,19.0,81,30.41,10.0,WNW,9.2,-,N/A,,Overcast,290,2013-10-05 04:53:00
11:53 PM,24.1,19.0,81,30.41,10.0,WNW,11.5,-,N/A,,Overcast,300,2013-10-05 05:53:00